Time;durP1;ratioP1;P1;durP2;ratioP2;P2;SDS_P1;SDS_P2;PMS_P1;PMS_P2;Temp;Humidity;BMP_temperature;BMP_pressure;BME280_temperature;BME280_humidity;BME280_pressure;Samples;Min_cycle;Max_cycle;Signal;HPM_P1;HPM_P2
2021/12/12 00:00:12;;;;;;;55.97;30.73;;;3.80;99.90;;;;;;2155209;66;20181;-82
2021/12/12 00:03:21;;;;;;;49.08;29.27;;;3.90;99.90;;;;;;2155381;66;20371;-82
2021/12/12 00:06:11;;;;;;;48.47;29.33;;;3.90;99.90;;;;;;2163482;66;20330;-80
2021/12/12 00:08:59;;;;;;;52.95;29.85;;;3.90;99.90;;;;;;2165016;66;20208;-79
2021/12/12 00:11:48;;;;;;;47.60;29.42;;;4.00;99.90;;;;;;2148416;66;20183;-82
2021/12/12 00:14:36;;;;;;;44.50;27.90;;;4.00;99.90;;;;;;2151874;66;20274;-82
2021/12/12 00:17:23;;;;;;;50.92;29.63;;;4.00;99.90;;;;;;2169472;65;20823;-81
2021/12/12 00:20:11;;;;;;;47.53;27.08;;;4.20;99.90;;;;;;2181740;65;20171;-79
2021/12/12 00:22:58;;;;;;;45.00;27.95;;;4.00;99.90;;;;;;2178535;65;20277;-81
2021/12/12 00:25:44;;;;;;;54.10;28.65;;;4.00;99.90;;;;;;2170309;65;20302;-81
2021/12/12 00:28:29;;;;;;;48.05;28.67;;;4.00;99.90;;;;;;2167047;66;20867;-81
2021/12/12 00:31:22;;;;;;;52.20;29.02;;;4.00;99.90;;;;;;2168002;66;20243;-81
2021/12/12 00:34:05;;;;;;;44.15;27.20;;;4.10;99.90;;;;;;2159231;66;20334;-81
2021/12/12 00:36:47;;;;;;;43.65;28.63;;;4.00;99.90;;;;;;2169423;66;20266;-81
2021/12/12 00:39:32;;;;;;;40.90;27.50;;;4.60;99.90;;;;;;2172289;66;20201;-82
2021/12/12 00:42:18;;;;;;;44.65;27.48;;;4.60;99.90;;;;;;2165086;66;20220;-81
2021/12/12 00:45:03;;;;;;;;;;;4.10;99.90;;;;;;2172808;66;20188;-81
2021/12/12 00:47:46;;;;;;;45.60;26.58;;;4.10;99.90;;;;;;2181766;65;20662;-82
2021/12/12 00:50:33;;;;;;;45.15;27.83;;;4.90;99.90;;;;;;2175161;65;20271;-83
2021/12/12 00:53:20;;;;;;;49.45;28.92;;;4.10;99.90;;;;;;2175837;65;20379;-81
2021/12/12 00:56:06;;;;;;;46.05;29.08;;;4.20;99.90;;;;;;2167914;66;20202;-82
2021/12/12 00:58:50;;;;;;;49.25;29.40;;;4.20;99.90;;;;;;2167784;66;20204;-81
2021/12/12 01:01:56;;;;;;;50.40;29.00;;;4.10;99.90;;;;;;2147165;66;20239;-81
2021/12/12 01:04:42;;;;;;;50.92;28.70;;;4.20;99.90;;;;;;2142072;66;20170;-81
2021/12/12 01:07:43;;;;;;;;;;;4.20;99.90;;;;;;2137960;67;20294;-80
2021/12/12 01:10:53;;;;;;;41.33;27.35;;;4.20;99.90;;;;;;2154176;66;20557;-82
2021/12/12 01:13:36;;;;;;;48.65;29.60;;;4.10;99.90;;;;;;2158764;66;20789;-80
2021/12/12 01:16:31;;;;;;;50.60;30.50;;;4.20;99.90;;;;;;2155817;66;20210;-82
2021/12/12 01:19:23;;;;;;;50.72;30.10;;;4.10;99.90;;;;;;2145005;66;20429;-80
2021/12/12 01:22:16;;;;;;;47.45;28.48;;;4.20;99.90;;;;;;2156799;66;20870;-80
2021/12/12 01:25:21;;;;;;;51.00;30.98;;;4.20;99.90;;;;;;2169258;66;20279;-82
2021/12/12 01:28:04;;;;;;;48.95;30.02;;;4.10;99.90;;;;;;2182429;65;20552;-80
2021/12/12 01:30:45;;;;;;;55.10;31.15;;;4.20;99.90;;;;;;2180149;65;20179;-80
2021/12/12 01:33:35;;;;;;;46.72;30.13;;;4.10;99.90;;;;;;2197587;65;20323;-80
2021/12/12 01:36:41;;;;;;;56.03;30.75;;;4.10;99.90;;;;;;2191231;65;20213;-80
2021/12/12 01:39:26;;;;;;;47.95;30.95;;;4.20;99.90;;;;;;2184381;65;20342;-79
2021/12/12 01:42:26;;;;;;;58.72;32.75;;;4.50;99.90;;;;;;2178312;65;20159;-79
2021/12/12 01:45:12;;;;;;;63.25;33.97;;;4.20;99.90;;;;;;2167254;66;20173;-81
2021/12/12 01:48:21;;;;;;;57.65;35.45;;;4.10;99.90;;;;;;2171151;65;20252;-81
2021/12/12 01:51:07;;;;;;;69.82;37.72;;;4.20;99.90;;;;;;2182441;65;20211;-80
2021/12/12 01:53:55;;;;;;;83.97;43.90;;;4.10;99.90;;;;;;2169680;65;20263;-81
2021/12/12 01:56:50;;;;;;;79.38;42.33;;;4.00;99.90;;;;;;2165340;66;20192;-79
2021/12/12 01:59:34;;;;;;;116.70;53.13;;;4.10;99.90;;;;;;2154811;65;20288;-78
2021/12/12 02:02:38;;;;;;;90.63;46.25;;;4.00;99.90;;;;;;2147237;66;20201;-76
2021/12/12 02:05:21;;;;;;;91.10;47.38;;;4.00;99.90;;;;;;2147488;66;20182;-76
2021/12/12 02:08:08;;;;;;;80.75;41.83;;;4.00;99.90;;;;;;2152713;66;20782;-75
2021/12/12 02:10:57;;;;;;;83.30;43.75;;;4.00;99.90;;;;;;2164610;66;20198;-75
2021/12/12 02:13:43;;;;;;;78.57;44.90;;;4.00;99.90;;;;;;2169486;65;20781;-75
2021/12/12 02:16:28;;;;;;;;;;;4.00;99.90;;;;;;2149351;66;20320;-76
2021/12/12 02:19:13;;;;;;;76.63;43.60;;;4.00;99.90;;;;;;2167629;65;20191;-76
2021/12/12 02:22:04;;;;;;;80.40;47.67;;;4.00;99.90;;;;;;2169765;65;20320;-77
2021/12/12 02:36:51;;;;;;;86.40;44.85;;;4.10;99.90;;;;;;2146456;66;20407;-76
2021/12/12 02:39:35;;;;;;;84.28;43.50;;;4.10;99.90;;;;;;2143248;66;20329;-76
2021/12/12 02:42:22;;;;;;;86.38;43.47;;;4.10;99.90;;;;;;2156387;66;20335;-77
2021/12/12 02:45:08;;;;;;;73.93;40.08;;;4.10;99.90;;;;;;2165171;66;20322;-77
2021/12/12 02:47:58;;;;;;;85.20;44.85;;;4.20;99.90;;;;;;2168469;66;20475;-77
2021/12/12 02:50:43;;;;;;;86.03;45.10;;;4.20;99.90;;;;;;2168850;65;20395;-76
2021/12/12 02:53:30;;;;;;;86.90;42.97;;;4.20;99.90;;;;;;2161156;66;20249;-77
2021/12/12 02:56:34;;;;;;;78.07;41.20;;;4.20;99.90;;;;;;2152050;66;20263;-78
2021/12/12 02:59:20;;;;;;;78.43;42.45;;;4.30;99.90;;;;;;2147070;66;20207;-78
2021/12/12 03:02:13;;;;;;;78.20;38.17;;;4.30;99.90;;;;;;2168605;65;20341;-78
2021/12/12 03:04:58;;;;;;;87.32;38.92;;;4.30;99.90;;;;;;2155837;66;20202;-79
2021/12/12 03:07:41;;;;;;;68.68;36.53;;;4.40;99.90;;;;;;2153445;66;20210;-79
2021/12/12 03:10:28;;;;;;;72.75;38.83;;;4.30;99.90;;;;;;2160335;66;20369;-77
2021/12/12 03:13:11;;;;;;;65.65;36.65;;;4.40;99.90;;;;;;2161553;66;20580;-79
2021/12/12 03:15:54;;;;;;;78.22;41.25;;;4.50;99.90;;;;;;2151088;66;20169;-78
2021/12/12 03:18:42;;;;;;;67.75;38.50;;;4.40;99.90;;;;;;2139254;66;20212;-79
2021/12/12 03:21:31;;;;;;;67.17;36.37;;;4.40;99.90;;;;;;2136558;67;20352;-78
2021/12/12 03:24:22;;;;;;;72.30;37.45;;;4.40;99.90;;;;;;2143089;66;20616;-78
2021/12/12 03:27:06;;;;;;;77.90;38.38;;;4.40;99.90;;;;;;2171476;65;20797;-77
2021/12/12 03:29:50;;;;;;;69.85;38.30;;;4.40;99.90;;;;;;2173795;65;20336;-77
2021/12/12 03:32:35;;;;;;;58.83;32.92;;;4.50;99.90;;;;;;2163202;66;20306;-78
2021/12/12 03:35:21;;;;;;;66.95;36.50;;;4.50;99.90;;;;;;2156582;66;20222;-77
2021/12/12 03:38:07;;;;;;;54.10;32.15;;;4.60;99.90;;;;;;2146396;66;20703;-76
2021/12/12 03:40:49;;;;;;;53.05;30.95;;;4.60;99.90;;;;;;2136552;67;20723;-75
2021/12/12 03:43:30;;;;;;;55.35;32.45;;;4.60;99.90;;;;;;2136381;67;20339;-75
2021/12/12 03:46:12;;;;;;;61.30;34.67;;;4.60;99.90;;;;;;2144793;66;20177;-75
2021/12/12 03:48:58;;;;;;;51.47;31.05;;;4.60;99.90;;;;;;2131312;67;20235;-75
2021/12/12 03:51:40;;;;;;;;;;;4.70;99.90;;;;;;2118160;67;20173;-75
2021/12/12 03:54:23;;;;;;;59.90;32.00;;;4.70;99.90;;;;;;2110552;67;20177;-76
2021/12/12 03:57:08;;;;;;;48.50;29.65;;;4.70;99.90;;;;;;2116773;67;20245;-75
2021/12/12 03:59:49;;;;;;;60.13;30.67;;;4.70;99.90;;;;;;2121070;67;20372;-76
2021/12/12 04:02:31;;;;;;;49.42;30.33;;;4.70;99.90;;;;;;2115866;67;20176;-77
2021/12/12 04:05:13;;;;;;;50.70;27.77;;;4.80;99.90;;;;;;2120667;67;20185;-76
2021/12/12 04:07:56;;;;;;;43.78;27.88;;;4.80;99.90;;;;;;2128420;67;20701;-76
2021/12/12 04:10:42;;;;;;;45.35;26.83;;;4.80;99.90;;;;;;2134732;67;20199;-75
2021/12/12 04:13:23;;;;;;;47.67;27.98;;;4.80;99.90;;;;;;2120094;67;20693;-75
2021/12/12 04:16:07;;;;;;;35.63;23.02;;;4.80;99.90;;;;;;2116881;67;20350;-76
2021/12/12 04:18:52;;;;;;;39.67;25.30;;;4.80;99.90;;;;;;2129685;66;20344;-76
2021/12/12 04:21:35;;;;;;;49.10;27.50;;;4.80;99.90;;;;;;2140204;67;20211;-76
2021/12/12 04:24:26;;;;;;;37.78;24.45;;;4.80;99.90;;;;;;2132445;67;20171;-75
2021/12/12 04:27:09;;;;;;;45.38;27.42;;;4.80;99.90;;;;;;2124474;67;20317;-76
2021/12/12 04:29:53;;;;;;;38.33;24.63;;;4.80;99.90;;;;;;2130715;67;20287;-75
2021/12/12 04:32:35;;;;;;;38.65;23.58;;;4.80;99.90;;;;;;2146999;66;20334;-76
2021/12/12 04:35:21;;;;;;;39.03;23.23;;;4.80;99.90;;;;;;2148433;66;20769;-77
2021/12/12 04:38:05;;;;;;;36.97;24.45;;;4.80;99.90;;;;;;2148326;66;20162;-77
2021/12/12 04:40:46;;;;;;;35.30;22.52;;;4.80;99.90;;;;;;2147365;66;20336;-80
2021/12/12 04:43:29;;;;;;;35.72;23.88;;;4.80;99.90;;;;;;2145747;66;20680;-75
2021/12/12 04:46:22;;;;;;;38.47;24.92;;;4.80;99.90;;;;;;2137547;66;20319;-76
2021/12/12 04:52:07;;;;;;;36.08;23.60;;;4.80;99.90;;;;;;2140371;66;20269;-76
2021/12/12 04:55:03;;;;;;;40.13;23.88;;;4.80;99.90;;;;;;2155765;66;20357;-76
2021/12/12 04:58:26;;;;;;;39.55;24.52;;;4.80;99.90;;;;;;2154480;66;20229;-76
2021/12/12 05:01:17;;;;;;;34.67;22.20;;;4.70;99.90;;;;;;2160825;65;20232;-75
2021/12/12 05:04:19;;;;;;;38.80;24.92;;;4.80;99.90;;;;;;2149706;66;20217;-75
2021/12/12 05:07:32;;;;;;;28.30;21.00;;;4.80;99.90;;;;;;2143391;66;20337;-76
2021/12/12 05:10:33;;;;;;;31.70;19.10;;;4.80;99.90;;;;;;2137322;67;20179;-76
2021/12/12 05:13:24;;;;;;;40.13;24.15;;;4.80;99.90;;;;;;2139801;66;20373;-75
2021/12/12 05:16:18;;;;;;;27.40;18.15;;;4.80;99.90;;;;;;2147305;66;20215;-77
2021/12/12 05:19:15;;;;;;;27.10;19.92;;;4.80;99.90;;;;;;2154223;66;20769;-76
2021/12/12 05:22:01;;;;;;;;;;;4.80;99.90;;;;;;2144277;66;20245;-77
2021/12/12 05:24:48;;;;;;;26.45;18.80;;;4.80;99.90;;;;;;2139604;66;20074;-77
2021/12/12 05:27:35;;;;;;;28.85;19.33;;;4.80;99.90;;;;;;2154189;66;20250;-77
2021/12/12 05:30:21;;;;;;;28.48;18.00;;;4.90;99.90;;;;;;2144593;66;20167;-77
2021/12/12 05:33:05;;;;;;;28.15;18.35;;;4.90;99.90;;;;;;2133876;67;20195;-76
2021/12/12 05:35:52;;;;;;;31.25;18.55;;;4.90;99.90;;;;;;2145610;66;20214;-77
2021/12/12 05:38:38;;;;;;;27.88;17.88;;;4.90;99.90;;;;;;2137495;66;20237;-78
2021/12/12 05:41:21;;;;;;;25.38;17.92;;;5.00;99.90;;;;;;2147032;66;20338;-77
2021/12/12 05:44:06;;;;;;;29.75;18.23;;;5.00;99.90;;;;;;2151733;66;20636;-79
2021/12/12 05:46:59;;;;;;;26.77;17.85;;;5.00;99.90;;;;;;2154418;66;20181;-79
2021/12/12 05:49:42;;;;;;;30.15;18.10;;;5.00;99.90;;;;;;2161228;66;20329;-77
2021/12/12 05:52:28;;;;;;;25.88;16.88;;;5.10;99.90;;;;;;2156489;66;20295;-76
2021/12/12 05:55:17;;;;;;;22.65;15.50;;;5.10;99.90;;;;;;2140768;66;20301;-76
2021/12/12 05:58:04;;;;;;;26.83;17.80;;;5.10;99.90;;;;;;2155656;66;20815;-75
2021/12/12 06:00:57;;;;;;;22.05;16.02;;;5.10;99.90;;;;;;2155756;66;20771;-77
2021/12/12 06:03:41;;;;;;;34.30;20.13;;;5.20;99.90;;;;;;2154846;66;20349;-76
2021/12/12 06:06:29;;;;;;;26.73;17.65;;;5.30;99.90;;;;;;2160022;66;20261;-76
2021/12/12 06:09:13;;;;;;;25.50;17.73;;;5.30;99.90;;;;;;2164947;65;20219;-76
2021/12/12 06:11:56;;;;;;;27.63;16.45;;;5.30;99.90;;;;;;2162435;66;20216;-77
2021/12/12 06:14:38;;;;;;;29.65;19.27;;;5.40;99.90;;;;;;2166160;66;20859;-75
2021/12/12 06:17:22;;;;;;;26.70;18.30;;;5.40;99.90;;;;;;2159939;66;20387;-76
2021/12/12 06:20:11;;;;;;;26.70;16.92;;;5.40;99.90;;;;;;2157886;66;20570;-75
2021/12/12 06:22:56;;;;;;;30.13;18.63;;;5.40;99.90;;;;;;2163344;65;20185;-76
2021/12/12 06:25:42;;;;;;;36.63;21.45;;;5.40;99.90;;;;;;2156466;66;20748;-75
2021/12/12 06:28:31;;;;;;;33.55;21.67;;;5.40;99.90;;;;;;2162237;66;20230;-74
2021/12/12 06:31:13;;;;;;;26.33;17.55;;;5.40;99.90;;;;;;2146050;66;20326;-77
2021/12/12 06:33:57;;;;;;;32.50;20.63;;;5.50;99.90;;;;;;2147512;66;20272;-75
2021/12/12 06:36:39;;;;;;;30.33;18.55;;;5.40;99.90;;;;;;2153628;66;20241;-75
2021/12/12 06:39:22;;;;;;;29.85;19.20;;;5.50;99.90;;;;;;2154790;66;20203;-78
2021/12/12 06:42:06;;;;;;;32.80;19.95;;;5.50;99.90;;;;;;2153232;66;20169;-76
2021/12/12 06:44:48;;;;;;;29.67;17.77;;;5.50;99.90;;;;;;2146112;66;20782;-76
2021/12/12 06:47:31;;;;;;;35.20;19.25;;;5.50;99.90;;;;;;2147375;66;20358;-76
2021/12/12 06:50:17;;;;;;;29.05;17.08;;;5.60;99.90;;;;;;2151938;66;20271;-78
2021/12/12 06:53:00;;;;;;;29.02;18.55;;;5.70;99.90;;;;;;2131123;66;21049;-77
2021/12/12 06:55:45;;;;;;;30.42;19.38;;;5.60;99.90;;;;;;2155351;65;20317;-77
2021/12/12 06:58:32;;;;;;;31.17;17.35;;;5.70;99.90;;;;;;2152471;66;20177;-78
2021/12/12 07:01:19;;;;;;;36.88;20.88;;;5.70;99.90;;;;;;2138881;66;20260;-79
2021/12/12 07:04:02;;;;;;;34.07;17.77;;;5.70;99.90;;;;;;2131024;67;20317;-79
2021/12/12 07:06:46;;;;;;;30.42;17.60;;;5.80;99.90;;;;;;2131728;67;20180;-78
2021/12/12 07:09:32;;;;;;;29.58;17.92;;;5.80;99.90;;;;;;2116191;67;20755;-79
2021/12/12 07:12:22;;;;;;;29.58;17.83;;;5.80;99.90;;;;;;2116264;67;20185;-77
2021/12/12 07:15:04;;;;;;;31.33;19.75;;;5.80;99.90;;;;;;2125103;67;20276;-77
2021/12/12 07:17:48;;;;;;;41.30;24.42;;;5.80;99.90;;;;;;2138610;66;20459;-76
2021/12/12 07:20:32;;;;;;;;;;;5.80;99.90;;;;;;2130705;67;20242;-78
2021/12/12 07:23:14;;;;;;;25.88;17.77;;;5.80;99.90;;;;;;2142378;66;20784;-78
2021/12/12 07:26:00;;;;;;;37.63;19.73;;;5.80;99.90;;;;;;2140924;66;20166;-78
2021/12/12 07:28:45;;;;;;;37.88;20.80;;;5.90;99.90;;;;;;2134176;66;21354;-77
2021/12/12 07:31:32;;;;;;;32.97;20.98;;;5.90;99.90;;;;;;2133927;66;20323;-76
2021/12/12 07:34:16;;;;;;;35.90;21.52;;;5.90;99.90;;;;;;2137897;66;20568;-76
2021/12/12 07:37:05;;;;;;;36.53;20.50;;;5.90;99.90;;;;;;2141192;66;20408;-75
2021/12/12 07:39:50;;;;;;;34.53;20.90;;;6.00;99.90;;;;;;2124228;67;20359;-78
2021/12/12 07:42:33;;;;;;;38.58;22.02;;;6.00;99.90;;;;;;2110074;67;20324;-78
2021/12/12 07:45:20;;;;;;;31.70;19.50;;;6.00;99.90;;;;;;2103838;67;20330;-79
2021/12/12 07:48:02;;;;;;;34.08;19.20;;;6.00;99.90;;;;;;2086486;68;20673;-80
2021/12/12 07:50:46;;;;;;;36.70;21.75;;;6.00;99.90;;;;;;2090693;68;20307;-78
2021/12/12 07:53:29;;;;;;;34.70;21.65;;;6.10;99.90;;;;;;2097694;68;20361;-78
2021/12/12 07:56:11;;;;;;;46.97;24.98;;;6.10;99.90;;;;;;2098572;67;20342;-78
2021/12/12 07:58:53;;;;;;;35.75;21.38;;;6.10;99.90;;;;;;2122683;67;20335;-75
2021/12/12 08:01:37;;;;;;;33.33;19.73;;;6.20;99.90;;;;;;2131554;67;20221;-78
2021/12/12 08:04:27;;;;;;;41.03;23.38;;;6.20;99.90;;;;;;2133265;67;20179;-77
2021/12/12 08:07:17;;;;;;;39.65;21.58;;;6.20;99.90;;;;;;2133585;66;20687;-79
2021/12/12 08:10:01;;;;;;;40.05;21.85;;;6.20;99.90;;;;;;2151849;66;20295;-75
2021/12/12 08:12:46;;;;;;;37.97;20.88;;;6.20;99.90;;;;;;2155563;66;20249;-79
2021/12/12 08:15:29;;;;;;;32.05;19.30;;;5.90;99.90;;;;;;2169963;65;20369;-77
2021/12/12 08:18:15;;;;;;;38.10;21.13;;;6.30;99.90;;;;;;2156762;66;20207;-78
2021/12/12 08:20:59;;;;;;;43.90;23.73;;;6.60;99.90;;;;;;2149509;66;20276;-77
2021/12/12 08:23:42;;;;;;;41.72;21.67;;;6.30;99.90;;;;;;2150267;66;20229;-76
2021/12/12 08:26:26;;;;;;;41.17;22.10;;;6.30;99.90;;;;;;2134393;67;20219;-76
2021/12/12 08:29:13;;;;;;;43.47;22.90;;;6.30;99.90;;;;;;2142700;66;20271;-77
2021/12/12 08:31:56;;;;;;;35.60;22.33;;;6.40;99.90;;;;;;2129750;67;20222;-78
2021/12/12 08:34:39;;;;;;;35.40;22.15;;;6.60;99.90;;;;;;2136158;67;20223;-78
2021/12/12 08:37:23;;;;;;;40.28;21.85;;;6.40;99.90;;;;;;2142855;67;20630;-79
2021/12/12 08:40:06;;;;;;;45.78;24.73;;;6.40;99.90;;;;;;2129031;67;20208;-77
2021/12/12 08:42:49;;;;;;;47.95;24.48;;;6.50;99.90;;;;;;2125832;67;20184;-76
2021/12/12 08:45:32;;;;;;;40.50;23.80;;;6.40;99.90;;;;;;2126807;67;20242;-78
2021/12/12 08:48:16;;;;;;;43.03;22.45;;;6.50;99.90;;;;;;2144882;66;20198;-76
2021/12/12 08:51:09;;;;;;;46.75;23.08;;;6.50;99.90;;;;;;2155010;66;20221;-78
2021/12/12 08:53:54;;;;;;;46.20;25.60;;;6.50;99.90;;;;;;2155059;66;20327;-77
2021/12/12 08:56:46;;;;;;;47.13;25.75;;;7.30;99.90;;;;;;2155969;66;20371;-79
2021/12/12 08:59:46;;;;;;;64.38;27.40;;;6.50;99.90;;;;;;2147412;66;20591;-77
2021/12/12 09:02:29;;;;;;;52.28;27.23;;;6.60;99.90;;;;;;2163139;66;20299;-78
2021/12/12 09:05:25;;;;;;;41.42;24.38;;;6.60;99.90;;;;;;2154509;66;20194;-79
2021/12/12 09:08:13;;;;;;;54.10;28.00;;;6.60;99.90;;;;;;2135053;67;20183;-78
2021/12/12 09:11:26;;;;;;;55.30;27.70;;;6.70;99.90;;;;;;2137053;67;20321;-77
2021/12/12 09:14:07;;;;;;;54.17;28.42;;;6.70;99.90;;;;;;2120716;67;20173;-77
2021/12/12 09:17:18;;;;;;;55.00;23.55;;;6.70;99.90;;;;;;2116058;67;20315;-77
2021/12/12 09:20:03;;;;;;;67.40;28.85;;;6.70;99.90;;;;;;2103909;67;20330;-79
2021/12/12 09:23:00;;;;;;;68.65;31.90;;;6.80;99.90;;;;;;2105647;68;20190;-77
2021/12/12 09:25:56;;;;;;;67.18;32.42;;;7.60;99.90;;;;;;2114356;67;20202;-78
2021/12/12 09:29:10;;;;;;;72.88;35.80;;;7.10;99.90;;;;;;2101576;68;20183;-78
2021/12/12 09:32:09;;;;;;;80.82;34.80;;;6.90;99.90;;;;;;2106157;68;20191;-78
2021/12/12 09:35:01;;;;;;;90.43;37.60;;;7.00;99.90;;;;;;2093279;68;20204;-79
2021/12/12 09:37:54;;;;;;;77.20;34.33;;;7.00;99.90;;;;;;2099428;68;20260;-80
2021/12/12 09:41:04;;;;;;;82.75;35.25;;;7.10;99.90;;;;;;2096665;68;20688;-80
2021/12/12 09:44:21;;;;;;;95.97;38.72;;;7.10;99.90;;;;;;2111276;67;20191;-79
2021/12/12 09:47:30;;;;;;;;;;;7.20;99.90;;;;;;2125566;67;20601;-78
2021/12/12 09:54:03;;;;;;;106.30;41.33;;;7.30;99.90;;;;;;2158466;66;20348;-79
2021/12/12 09:56:56;;;;;;;98.63;38.60;;;7.30;99.90;;;;;;2145948;66;20353;-80
2021/12/12 10:00:07;;;;;;;129.48;44.80;;;7.40;99.90;;;;;;2131298;67;20212;-78
2021/12/12 10:03:05;;;;;;;96.95;40.78;;;7.40;99.90;;;;;;2123168;67;20250;-81
2021/12/12 10:06:19;;;;;;;100.85;41.97;;;7.50;99.90;;;;;;2127775;67;20179;-81
2021/12/12 10:09:18;;;;;;;104.55;40.80;;;7.40;99.90;;;;;;2141622;67;20325;-80
2021/12/12 10:12:11;;;;;;;106.50;43.03;;;7.60;99.90;;;;;;2152794;66;20183;-81
2021/12/12 10:14:58;;;;;;;102.35;42.83;;;7.60;99.90;;;;;;2155537;66;20831;-80
2021/12/12 10:17:42;;;;;;;116.18;46.90;;;7.70;99.90;;;;;;2162536;66;20351;-78
2021/12/12 10:20:37;;;;;;;90.78;37.70;;;7.70;99.90;;;;;;2163684;66;20192;-81
2021/12/12 10:23:38;;;;;;;105.13;44.22;;;7.70;99.90;;;;;;2167773;66;20688;-80
2021/12/12 10:26:33;;;;;;;95.18;40.13;;;7.80;99.90;;;;;;2173918;66;20347;-80
2021/12/12 10:29:17;;;;;;;115.60;44.07;;;7.90;99.90;;;;;;2165024;66;20316;-80
2021/12/12 10:32:18;;;;;;;92.55;37.25;;;7.90;99.90;;;;;;2176552;65;20465;-79
2021/12/12 10:35:02;;;;;;;113.85;43.22;;;7.90;99.90;;;;;;2180813;65;20170;-78
2021/12/12 10:37:59;;;;;;;100.00;41.03;;;7.90;99.90;;;;;;2176711;65;20308;-78
2021/12/12 10:40:48;;;;;;;90.88;36.80;;;8.00;99.90;;;;;;2178498;65;20282;-81
2021/12/12 10:43:54;;;;;;;146.70;51.22;;;8.00;99.90;;;;;;2158239;66;20959;-80
2021/12/12 10:47:01;;;;;;;112.00;42.80;;;8.10;99.90;;;;;;2166808;65;20324;-82
2021/12/12 10:50:10;;;;;;;99.53;39.88;;;8.20;99.90;;;;;;2153820;66;20207;-79
2021/12/12 10:53:41;;;;;;;90.80;40.38;;;8.20;99.90;;;;;;2153547;66;20294;-79
2021/12/12 10:56:40;;;;;;;102.95;39.25;;;8.20;99.90;;;;;;2132364;67;20408;-80
2021/12/12 10:59:43;;;;;;;95.32;42.13;;;8.20;99.90;;;;;;2131155;67;20304;-78
2021/12/12 11:02:37;;;;;;;107.05;43.67;;;8.20;99.90;;;;;;2124728;67;20283;-79
2021/12/12 11:05:58;;;;;;;86.80;38.90;;;8.30;99.90;;;;;;2129688;67;20340;-79
2021/12/12 11:08:39;;;;;;;99.80;41.20;;;8.30;99.90;;;;;;2116077;67;20212;-78
2021/12/12 11:11:33;;;;;;;110.97;45.55;;;8.30;99.90;;;;;;2118332;67;20814;-78
2021/12/12 11:14:34;;;;;;;104.22;42.10;;;8.40;99.90;;;;;;2130582;67;20711;-78
2021/12/12 11:17:28;;;;;;;92.85;41.60;;;8.60;99.90;;;;;;2127036;67;20201;-79
2021/12/12 11:20:38;;;;;;;96.72;40.20;;;8.40;99.90;;;;;;2119867;67;20209;-79
2021/12/12 11:23:42;;;;;;;98.05;39.90;;;8.40;99.90;;;;;;2134053;67;20225;-80
2021/12/12 11:26:44;;;;;;;91.90;40.08;;;8.50;99.90;;;;;;2133900;66;20216;-78
2021/12/12 11:29:32;;;;;;;74.47;35.00;;;8.50;99.90;;;;;;2144279;66;20293;-79
2021/12/12 11:32:21;;;;;;;70.38;33.97;;;8.60;99.90;;;;;;2132435;67;20261;-78
2021/12/12 11:35:05;;;;;;;90.28;38.72;;;8.70;99.90;;;;;;2125842;67;20232;-79
2021/12/12 11:38:03;;;;;;;99.15;39.50;;;8.70;99.90;;;;;;2123221;67;20700;-79
2021/12/12 11:40:53;;;;;;;94.30;39.03;;;8.80;99.90;;;;;;2124852;67;20406;-80
2021/12/12 11:44:06;;;;;;;84.60;36.28;;;8.80;99.90;;;;;;2118623;67;20728;-80
2021/12/12 11:47:05;;;;;;;75.60;35.10;;;8.80;99.90;;;;;;2112219;67;20221;-77
2021/12/12 11:50:01;;;;;;;79.47;36.38;;;8.90;99.90;;;;;;2129108;67;20667;-79
2021/12/12 11:53:30;;;;;;;82.05;37.33;;;8.90;99.90;;;;;;2131678;67;20692;-78
2021/12/12 11:56:20;;;;;;;98.20;38.75;;;8.90;99.90;;;;;;2147697;66;20295;-80
2021/12/12 11:59:22;;;;;;;77.85;35.97;;;8.90;99.90;;;;;;2140926;66;20361;-79
2021/12/12 12:02:30;;;;;;;74.10;33.40;;;9.00;99.90;;;;;;2133726;67;20171;-80
2021/12/12 12:05:39;;;;;;;65.63;30.95;;;9.00;99.90;;;;;;2116196;67;20680;-79
2021/12/12 12:08:40;;;;;;;70.47;31.58;;;9.00;99.90;;;;;;2102221;68;20237;-78
2021/12/12 12:11:57;;;;;;;73.07;33.47;;;9.00;99.90;;;;;;2110815;67;20694;-77
2021/12/12 12:15:18;;;;;;;77.10;35.58;;;9.10;99.90;;;;;;2128742;67;20175;-78
2021/12/12 12:18:23;;;;;;;65.85;31.42;;;9.10;99.90;;;;;;2134288;66;20301;-80
2021/12/12 12:21:15;;;;;;;60.63;29.75;;;9.10;99.90;;;;;;2156526;65;20235;-78
2021/12/12 12:24:43;;;;;;;53.55;26.92;;;9.20;99.90;;;;;;2161415;65;20239;-77
2021/12/12 12:27:41;;;;;;;60.72;29.88;;;9.20;99.90;;;;;;2134815;66;20758;-78
2021/12/12 12:30:31;;;;;;;62.22;29.65;;;9.10;99.90;;;;;;2127886;67;20353;-77
2021/12/12 12:33:49;;;;;;;51.67;28.38;;;9.20;99.90;;;;;;2125664;67;20233;-80
2021/12/12 12:37:12;;;;;;;48.20;25.60;;;9.20;99.90;;;;;;2126433;67;20296;-78
2021/12/12 12:40:15;;;;;;;69.15;31.80;;;9.20;99.90;;;;;;2117656;67;20358;-77
2021/12/12 12:43:24;;;;;;;58.58;28.05;;;9.20;99.90;;;;;;2112352;67;20245;-79
2021/12/12 12:46:43;;;;;;;53.20;25.30;;;9.20;99.90;;;;;;2114442;67;20802;-76
2021/12/12 12:49:49;;;;;;;51.53;25.48;;;9.30;99.90;;;;;;2109642;67;20311;-77
2021/12/12 12:52:51;;;;;;;65.68;29.55;;;9.30;99.90;;;;;;2112477;67;20377;-78
2021/12/12 12:56:00;;;;;;;54.40;26.08;;;9.30;99.90;;;;;;2114509;67;20362;-78
2021/12/12 12:58:54;;;;;;;55.85;25.77;;;9.30;99.90;;;;;;2118759;67;20168;-79
2021/12/12 13:01:29;;;;;;;46.33;21.67;;;9.30;99.90;;;;;;2145389;66;20283;-79
2021/12/12 13:04:32;;;;;;;40.88;21.98;;;9.30;99.90;;;;;;2159879;66;20411;-77
2021/12/12 13:07:39;;;;;;;44.30;21.98;;;9.40;99.90;;;;;;2161078;65;20384;-79
2021/12/12 13:10:39;;;;;;;49.15;24.40;;;9.30;99.90;;;;;;2166582;65;20214;-79
2021/12/12 13:13:39;;;;;;;42.17;21.88;;;9.40;99.90;;;;;;2165626;65;20558;-78
2021/12/12 13:16:40;;;;;;;42.88;21.38;;;9.40;99.90;;;;;;2165846;65;20261;-79
2021/12/12 13:19:51;;;;;;;42.90;21.40;;;9.40;99.90;;;;;;2163900;65;20214;-78
2021/12/12 13:22:48;;;;;;;46.65;22.65;;;9.40;99.90;;;;;;2189815;65;20685;-78
2021/12/12 13:25:47;;;;;;;43.22;21.77;;;9.60;99.90;;;;;;2183546;65;20188;-76
2021/12/12 13:29:25;;;;;;;49.90;23.73;;;9.40;99.90;;;;;;2191503;65;20259;-78
2021/12/12 13:32:28;;;;;;;54.00;24.92;;;9.50;99.90;;;;;;2199320;65;20198;-78
2021/12/12 13:35:23;;;;;;;49.78;22.70;;;9.50;99.90;;;;;;2197844;65;20169;-78
2021/12/12 13:38:00;;;;;;;41.80;20.50;;;9.50;99.90;;;;;;2207480;64;20188;-78
2021/12/12 13:40:56;;;;;;;50.55;24.83;;;9.50;99.90;;;;;;2215555;64;20676;-77
2021/12/12 13:44:10;;;;;;;57.58;24.40;;;9.50;99.90;;;;;;2201279;65;20169;-79
2021/12/12 13:47:22;;;;;;;42.05;20.02;;;9.60;99.90;;;;;;2191727;65;20199;-78
2021/12/12 13:50:13;;;;;;;49.35;21.42;;;9.60;99.90;;;;;;2192669;65;20191;-79
2021/12/12 13:53:13;;;;;;;43.42;21.33;;;9.70;99.90;;;;;;2182751;65;20250;-78
2021/12/12 13:55:54;;;;;;;42.58;20.02;;;9.70;99.90;;;;;;2183216;65;20226;-79
2021/12/12 13:58:37;;;;;;;45.60;20.83;;;9.70;99.90;;;;;;2195737;65;20658;-80
2021/12/12 14:01:50;;;;;;;36.28;19.65;;;9.70;99.90;;;;;;2197161;65;20704;-80
2021/12/12 14:05:12;;;;;;;32.65;16.88;;;9.70;99.90;;;;;;2170381;65;20423;-79
2021/12/12 14:08:17;;;;;;;38.30;19.35;;;9.70;99.90;;;;;;2181486;65;20831;-79
2021/12/12 14:11:08;;;;;;;34.67;18.58;;;9.70;99.90;;;;;;2178195;65;20609;-79
2021/12/12 14:14:14;;;;;;;35.15;16.52;;;9.70;99.90;;;;;;2158881;66;20710;-78
2021/12/12 14:17:21;;;;;;;28.35;15.68;;;9.70;99.90;;;;;;2137860;66;20336;-79
2021/12/12 14:20:11;;;;;;;35.30;16.98;;;9.80;99.90;;;;;;2130210;67;20214;-79
2021/12/12 14:22:56;;;;;;;33.63;17.05;;;9.70;99.90;;;;;;2130302;67;20262;-78
2021/12/12 14:26:04;;;;;;;26.57;16.57;;;9.80;99.90;;;;;;2138925;66;20767;-79
2021/12/12 14:28:54;;;;;;;26.17;14.70;;;9.70;99.90;;;;;;2136406;66;20183;-79
2021/12/12 14:31:42;;;;;;;25.67;15.60;;;9.80;99.90;;;;;;2129736;67;20697;-79
2021/12/12 14:34:47;;;;;;;26.65;15.15;;;9.80;99.90;;;;;;2129260;67;20862;-81
2021/12/12 14:37:35;;;;;;;29.67;14.88;;;9.80;99.90;;;;;;2130421;67;20255;-78
2021/12/12 14:40:29;;;;;;;27.73;14.90;;;9.70;99.90;;;;;;2124510;67;20211;-80
2021/12/12 14:43:21;;;;;;;24.10;14.63;;;9.80;99.90;;;;;;2123081;67;20333;-78
2021/12/12 14:46:17;;;;;;;30.10;14.38;;;9.80;99.90;;;;;;2107110;67;20237;-79
2021/12/12 14:49:26;;;;;;;28.38;15.30;;;9.80;99.90;;;;;;2100434;67;20402;-77
2021/12/12 14:52:32;;;;;;;27.38;14.85;;;9.80;99.90;;;;;;2101916;67;21328;-79
2021/12/12 14:55:20;;;;;;;26.73;15.82;;;9.80;99.90;;;;;;2090127;68;20202;-80
2021/12/12 14:58:31;;;;;;;22.38;12.30;;;9.80;99.90;;;;;;2099447;68;20239;-79
2021/12/12 15:01:21;;;;;;;26.20;15.02;;;9.70;99.90;;;;;;2102983;67;20401;-78
2021/12/12 15:04:26;;;;;;;31.65;16.13;;;9.70;99.90;;;;;;2109753;67;20257;-75